sensor_id;sensor_type;location;lat;lon;timestamp;P1;durP1;ratioP1;P2;durP2;ratioP2
23302;SDS011;11820;48.738;9.092;2023-06-22T00:00:27;10.93;;;6.80;;
23302;SDS011;11820;48.738;9.092;2023-06-22T00:02:52;9.87;;;7.23;;
23302;SDS011;11820;48.738;9.092;2023-06-22T00:05:18;7.90;;;7.20;;
23302;SDS011;11820;48.738;9.092;2023-06-22T00:07:43;8.40;;;7.60;;
23302;SDS011;11820;48.738;9.092;2023-06-22T00:10:08;7.70;;;7.00;;
23302;SDS011;11820;48.738;9.092;2023-06-22T00:12:34;8.97;;;7.27;;
23302;SDS011;11820;48.738;9.092;2023-06-22T00:14:59;12.07;;;7.90;;
23302;SDS011;11820;48.738;9.092;2023-06-22T00:17:24;7.37;;;6.43;;
23302;SDS011;11820;48.738;9.092;2023-06-22T00:19:50;8.97;;;7.20;;
23302;SDS011;11820;48.738;9.092;2023-06-22T00:22:18;11.90;;;8.07;;
23302;SDS011;11820;48.738;9.092;2023-06-22T00:24:52;10.20;;;7.50;;
23302;SDS011;11820;48.738;9.092;2023-06-22T00:27:18;10.43;;;8.07;;
23302;SDS011;11820;48.738;9.092;2023-06-22T00:29:43;11.03;;;8.07;;
23302;SDS011;11820;48.738;9.092;2023-06-22T00:32:09;7.90;;;6.83;;
23302;SDS011;11820;48.738;9.092;2023-06-22T00:34:34;8.33;;;7.53;;
23302;SDS011;11820;48.738;9.092;2023-06-22T00:36:59;8.53;;;7.43;;
23302;SDS011;11820;48.738;9.092;2023-06-22T00:39:24;9.10;;;7.00;;
23302;SDS011;11820;48.738;9.092;2023-06-22T00:41:50;8.87;;;7.20;;
23302;SDS011;11820;48.738;9.092;2023-06-22T00:44:15;8.40;;;6.80;;
23302;SDS011;11820;48.738;9.092;2023-06-22T00:46:40;10.53;;;7.67;;
23302;SDS011;11820;48.738;9.092;2023-06-22T00:49:06;9.57;;;7.20;;
23302;SDS011;11820;48.738;9.092;2023-06-22T00:51:31;9.03;;;7.27;;
23302;SDS011;11820;48.738;9.092;2023-06-22T00:53:57;8.40;;;7.53;;
23302;SDS011;11820;48.738;9.092;2023-06-22T00:56:23;10.00;;;7.17;;
23302;SDS011;11820;48.738;9.092;2023-06-22T00:58:49;8.73;;;7.83;;
23302;SDS011;11820;48.738;9.092;2023-06-22T01:01:17;8.60;;;7.57;;
23302;SDS011;11820;48.738;9.092;2023-06-22T01:03:48;8.97;;;7.83;;
23302;SDS011;11820;48.738;9.092;2023-06-22T01:06:15;8.10;;;7.30;;
23302;SDS011;11820;48.738;9.092;2023-06-22T01:08:51;8.20;;;7.40;;
23302;SDS011;11820;48.738;9.092;2023-06-22T01:11:36;8.93;;;7.27;;
23302;SDS011;11820;48.738;9.092;2023-06-22T01:14:10;8.83;;;7.50;;
23302;SDS011;11820;48.738;9.092;2023-06-22T01:16:41;8.00;;;7.20;;
23302;SDS011;11820;48.738;9.092;2023-06-22T01:21:40;8.43;;;7.63;;
23302;SDS011;11820;48.738;9.092;2023-06-22T01:29:21;7.87;;;6.87;;
23302;SDS011;11820;48.738;9.092;2023-06-22T01:31:49;8.07;;;7.27;;
23302;SDS011;11820;48.738;9.092;2023-06-22T01:34:16;9.10;;;7.80;;
23302;SDS011;11820;48.738;9.092;2023-06-22T01:36:42;8.93;;;7.60;;
23302;SDS011;11820;48.738;9.092;2023-06-22T01:39:08;8.67;;;7.20;;
23302;SDS011;11820;48.738;9.092;2023-06-22T01:41:36;9.23;;;7.50;;
23302;SDS011;11820;48.738;9.092;2023-06-22T01:44:04;9.17;;;7.00;;
23302;SDS011;11820;48.738;9.092;2023-06-22T01:46:31;10.67;;;6.90;;
23302;SDS011;11820;48.738;9.092;2023-06-22T01:48:57;8.73;;;6.63;;
23302;SDS011;11820;48.738;9.092;2023-06-22T01:51:22;11.47;;;6.87;;
23302;SDS011;11820;48.738;9.092;2023-06-22T01:53:49;7.70;;;6.63;;
23302;SDS011;11820;48.738;9.092;2023-06-22T01:56:16;7.30;;;6.47;;
23302;SDS011;11820;48.738;9.092;2023-06-22T01:58:45;9.30;;;6.97;;
23302;SDS011;11820;48.738;9.092;2023-06-22T02:01:23;9.10;;;7.57;;
23302;SDS011;11820;48.738;9.092;2023-06-22T02:06:51;10.57;;;8.40;;
23302;SDS011;11820;48.738;9.092;2023-06-22T02:09:21;7.67;;;6.97;;
23302;SDS011;11820;48.738;9.092;2023-06-22T02:11:49;8.13;;;7.33;;
23302;SDS011;11820;48.738;9.092;2023-06-22T02:14:18;7.93;;;6.90;;
23302;SDS011;11820;48.738;9.092;2023-06-22T02:16:44;7.57;;;6.87;;
23302;SDS011;11820;48.738;9.092;2023-06-22T02:19:10;9.43;;;7.07;;
23302;SDS011;11820;48.738;9.092;2023-06-22T02:21:36;9.33;;;8.00;;
23302;SDS011;11820;48.738;9.092;2023-06-22T02:24:01;8.60;;;7.80;;
23302;SDS011;11820;48.738;9.092;2023-06-22T02:26:27;9.63;;;7.70;;
23302;SDS011;11820;48.738;9.092;2023-06-22T02:28:52;8.73;;;7.53;;
23302;SDS011;11820;48.738;9.092;2023-06-22T02:31:18;10.03;;;7.60;;
23302;SDS011;11820;48.738;9.092;2023-06-22T02:33:44;8.63;;;7.60;;
23302;SDS011;11820;48.738;9.092;2023-06-22T02:36:10;8.30;;;7.60;;
23302;SDS011;11820;48.738;9.092;2023-06-22T02:38:38;7.87;;;7.17;;
23302;SDS011;11820;48.738;9.092;2023-06-22T02:41:05;7.87;;;7.07;;
23302;SDS011;11820;48.738;9.092;2023-06-22T02:43:31;8.10;;;7.30;;
23302;SDS011;11820;48.738;9.092;2023-06-22T02:45:56;8.90;;;7.83;;
23302;SDS011;11820;48.738;9.092;2023-06-22T02:48:22;8.60;;;7.70;;
23302;SDS011;11820;48.738;9.092;2023-06-22T02:50:47;10.90;;;7.67;;
23302;SDS011;11820;48.738;9.092;2023-06-22T02:53:12;10.53;;;9.53;;
23302;SDS011;11820;48.738;9.092;2023-06-22T02:55:38;10.23;;;9.07;;
23302;SDS011;11820;48.738;9.092;2023-06-22T02:58:04;13.03;;;8.93;;
23302;SDS011;11820;48.738;9.092;2023-06-22T03:00:30;9.13;;;8.23;;
23302;SDS011;11820;48.738;9.092;2023-06-22T03:02:56;10.23;;;9.10;;
23302;SDS011;11820;48.738;9.092;2023-06-22T03:05:22;12.50;;;8.53;;
23302;SDS011;11820;48.738;9.092;2023-06-22T03:07:48;10.53;;;7.77;;
23302;SDS011;11820;48.738;9.092;2023-06-22T03:10:13;8.43;;;7.73;;
23302;SDS011;11820;48.738;9.092;2023-06-22T03:12:39;8.83;;;7.40;;
23302;SDS011;11820;48.738;9.092;2023-06-22T03:15:06;10.53;;;7.67;;
23302;SDS011;11820;48.738;9.092;2023-06-22T03:17:34;7.60;;;6.90;;
23302;SDS011;11820;48.738;9.092;2023-06-22T03:20:00;10.00;;;7.53;;
23302;SDS011;11820;48.738;9.092;2023-06-22T03:22:25;8.33;;;7.50;;
23302;SDS011;11820;48.738;9.092;2023-06-22T03:24:51;10.97;;;7.60;;
23302;SDS011;11820;48.738;9.092;2023-06-22T03:27:16;7.60;;;6.70;;
23302;SDS011;11820;48.738;9.092;2023-06-22T03:29:41;11.83;;;7.77;;
23302;SDS011;11820;48.738;9.092;2023-06-22T03:32:07;10.50;;;7.57;;
23302;SDS011;11820;48.738;9.092;2023-06-22T03:34:32;9.57;;;8.57;;
23302;SDS011;11820;48.738;9.092;2023-06-22T03:37:01;9.07;;;7.90;;
23302;SDS011;11820;48.738;9.092;2023-06-22T03:39:26;9.83;;;7.77;;
23302;SDS011;11820;48.738;9.092;2023-06-22T03:41:51;10.97;;;8.47;;
23302;SDS011;11820;48.738;9.092;2023-06-22T03:44:17;9.33;;;7.60;;
23302;SDS011;11820;48.738;9.092;2023-06-22T03:46:42;8.57;;;7.67;;
23302;SDS011;11820;48.738;9.092;2023-06-22T03:49:07;8.07;;;7.27;;
23302;SDS011;11820;48.738;9.092;2023-06-22T03:51:33;8.13;;;7.17;;
23302;SDS011;11820;48.738;9.092;2023-06-22T03:53:58;8.80;;;7.87;;
23302;SDS011;11820;48.738;9.092;2023-06-22T03:56:23;9.43;;;7.47;;
23302;SDS011;11820;48.738;9.092;2023-06-22T03:58:49;11.07;;;7.53;;
23302;SDS011;11820;48.738;9.092;2023-06-22T04:01:14;10.83;;;7.93;;
23302;SDS011;11820;48.738;9.092;2023-06-22T04:03:41;10.23;;;7.50;;
23302;SDS011;11820;48.738;9.092;2023-06-22T04:06:07;9.00;;;7.83;;
23302;SDS011;11820;48.738;9.092;2023-06-22T04:08:32;10.57;;;8.33;;
23302;SDS011;11820;48.738;9.092;2023-06-22T04:10:57;7.63;;;6.93;;
23302;SDS011;11820;48.738;9.092;2023-06-22T04:13:23;10.13;;;8.37;;
23302;SDS011;11820;48.738;9.092;2023-06-22T04:15:48;8.73;;;7.77;;
23302;SDS011;11820;48.738;9.092;2023-06-22T04:18:13;12.27;;;8.50;;
23302;SDS011;11820;48.738;9.092;2023-06-22T04:20:39;8.47;;;7.67;;
23302;SDS011;11820;48.738;9.092;2023-06-22T04:23:04;10.13;;;7.93;;
23302;SDS011;11820;48.738;9.092;2023-06-22T04:25:29;8.73;;;7.83;;
23302;SDS011;11820;48.738;9.092;2023-06-22T04:27:55;8.60;;;7.60;;
23302;SDS011;11820;48.738;9.092;2023-06-22T04:30:20;8.93;;;8.03;;
23302;SDS011;11820;48.738;9.092;2023-06-22T04:32:45;9.03;;;7.63;;
23302;SDS011;11820;48.738;9.092;2023-06-22T04:35:21;10.50;;;8.37;;
23302;SDS011;11820;48.738;9.092;2023-06-22T04:37:47;8.03;;;7.13;;
23302;SDS011;11820;48.738;9.092;2023-06-22T04:40:14;10.50;;;7.87;;
23302;SDS011;11820;48.738;9.092;2023-06-22T04:42:40;8.93;;;7.50;;
23302;SDS011;11820;48.738;9.092;2023-06-22T04:45:05;8.23;;;7.30;;
23302;SDS011;11820;48.738;9.092;2023-06-22T04:47:31;8.87;;;7.97;;
23302;SDS011;11820;48.738;9.092;2023-06-22T04:49:56;8.50;;;7.67;;
23302;SDS011;11820;48.738;9.092;2023-06-22T04:52:21;8.77;;;7.50;;
23302;SDS011;11820;48.738;9.092;2023-06-22T04:54:47;8.20;;;7.20;;
23302;SDS011;11820;48.738;9.092;2023-06-22T04:57:20;8.63;;;7.23;;
23302;SDS011;11820;48.738;9.092;2023-06-22T04:59:45;11.90;;;7.93;;
23302;SDS011;11820;48.738;9.092;2023-06-22T05:02:10;9.70;;;8.77;;
23302;SDS011;11820;48.738;9.092;2023-06-22T05:04:36;8.90;;;8.00;;
23302;SDS011;11820;48.738;9.092;2023-06-22T05:07:03;8.13;;;7.33;;
23302;SDS011;11820;48.738;9.092;2023-06-22T05:09:29;9.37;;;8.33;;
23302;SDS011;11820;48.738;9.092;2023-06-22T05:11:55;10.33;;;8.00;;
23302;SDS011;11820;48.738;9.092;2023-06-22T05:14:21;12.17;;;8.73;;
23302;SDS011;11820;48.738;9.092;2023-06-22T05:16:48;10.53;;;8.70;;
23302;SDS011;11820;48.738;9.092;2023-06-22T05:19:13;9.97;;;8.40;;
23302;SDS011;11820;48.738;9.092;2023-06-22T05:21:39;9.50;;;8.57;;
23302;SDS011;11820;48.738;9.092;2023-06-22T05:24:04;11.97;;;8.90;;
23302;SDS011;11820;48.738;9.092;2023-06-22T05:26:30;9.57;;;8.67;;
23302;SDS011;11820;48.738;9.092;2023-06-22T05:28:57;9.77;;;8.20;;
23302;SDS011;11820;48.738;9.092;2023-06-22T05:31:25;13.63;;;8.57;;
23302;SDS011;11820;48.738;9.092;2023-06-22T05:33:51;8.53;;;7.67;;
23302;SDS011;11820;48.738;9.092;2023-06-22T05:36:18;10.07;;;8.50;;
23302;SDS011;11820;48.738;9.092;2023-06-22T05:38:45;9.57;;;7.50;;
23302;SDS011;11820;48.738;9.092;2023-06-22T05:41:10;9.27;;;8.20;;
23302;SDS011;11820;48.738;9.092;2023-06-22T05:43:36;10.23;;;8.87;;
23302;SDS011;11820;48.738;9.092;2023-06-22T05:46:01;12.20;;;8.07;;
23302;SDS011;11820;48.738;9.092;2023-06-22T05:48:26;10.10;;;8.70;;
23302;SDS011;11820;48.738;9.092;2023-06-22T05:50:52;8.57;;;7.77;;
23302;SDS011;11820;48.738;9.092;2023-06-22T05:53:18;9.90;;;7.93;;
23302;SDS011;11820;48.738;9.092;2023-06-22T05:55:43;10.47;;;7.73;;
23302;SDS011;11820;48.738;9.092;2023-06-22T05:58:09;9.43;;;8.00;;
23302;SDS011;11820;48.738;9.092;2023-06-22T06:00:34;9.93;;;7.53;;
23302;SDS011;11820;48.738;9.092;2023-06-22T06:03:00;9.57;;;7.70;;
23302;SDS011;11820;48.738;9.092;2023-06-22T06:05:32;11.87;;;7.67;;
23302;SDS011;11820;48.738;9.092;2023-06-22T06:08:01;7.43;;;6.80;;
23302;SDS011;11820;48.738;9.092;2023-06-22T06:10:29;13.13;;;8.33;;
23302;SDS011;11820;48.738;9.092;2023-06-22T06:12:55;11.77;;;7.20;;
23302;SDS011;11820;48.738;9.092;2023-06-22T06:15:21;11.17;;;7.43;;
23302;SDS011;11820;48.738;9.092;2023-06-22T06:17:50;10.20;;;7.23;;
23302;SDS011;11820;48.738;9.092;2023-06-22T06:20:18;10.87;;;6.57;;
23302;SDS011;11820;48.738;9.092;2023-06-22T06:22:44;9.20;;;7.70;;
23302;SDS011;11820;48.738;9.092;2023-06-22T06:25:09;11.07;;;7.90;;
23302;SDS011;11820;48.738;9.092;2023-06-22T06:27:40;10.30;;;7.70;;
23302;SDS011;11820;48.738;9.092;2023-06-22T06:30:07;11.27;;;8.00;;
23302;SDS011;11820;48.738;9.092;2023-06-22T06:32:32;10.60;;;7.17;;
23302;SDS011;11820;48.738;9.092;2023-06-22T06:34:58;10.10;;;7.70;;
23302;SDS011;11820;48.738;9.092;2023-06-22T06:37:23;10.10;;;7.53;;
23302;SDS011;11820;48.738;9.092;2023-06-22T06:39:48;9.50;;;7.43;;
23302;SDS011;11820;48.738;9.092;2023-06-22T06:42:14;9.93;;;7.50;;
23302;SDS011;11820;48.738;9.092;2023-06-22T06:44:39;8.33;;;6.67;;
23302;SDS011;11820;48.738;9.092;2023-06-22T06:47:04;8.27;;;6.63;;
23302;SDS011;11820;48.738;9.092;2023-06-22T06:49:30;7.73;;;6.57;;
23302;SDS011;11820;48.738;9.092;2023-06-22T06:51:55;10.43;;;7.70;;
23302;SDS011;11820;48.738;9.092;2023-06-22T06:54:21;8.53;;;7.53;;
23302;SDS011;11820;48.738;9.092;2023-06-22T06:56:46;8.43;;;7.57;;
23302;SDS011;11820;48.738;9.092;2023-06-22T06:59:13;8.63;;;6.57;;
23302;SDS011;11820;48.738;9.092;2023-06-22T07:01:38;9.70;;;6.67;;
23302;SDS011;11820;48.738;9.092;2023-06-22T07:04:03;12.73;;;7.07;;
23302;SDS011;11820;48.738;9.092;2023-06-22T07:06:29;9.10;;;6.70;;
23302;SDS011;11820;48.738;9.092;2023-06-22T07:08:57;9.23;;;5.97;;
23302;SDS011;11820;48.738;9.092;2023-06-22T07:11:22;7.37;;;6.20;;
23302;SDS011;11820;48.738;9.092;2023-06-22T07:13:47;9.03;;;5.90;;
23302;SDS011;11820;48.738;9.092;2023-06-22T07:16:13;10.40;;;6.20;;
23302;SDS011;11820;48.738;9.092;2023-06-22T07:18:39;7.50;;;5.87;;
23302;SDS011;11820;48.738;9.092;2023-06-22T07:21:05;9.60;;;5.97;;
23302;SDS011;11820;48.738;9.092;2023-06-22T07:23:31;9.57;;;6.30;;
23302;SDS011;11820;48.738;9.092;2023-06-22T07:25:57;8.23;;;6.27;;
23302;SDS011;11820;48.738;9.092;2023-06-22T07:28:22;6.57;;;5.87;;
23302;SDS011;11820;48.738;9.092;2023-06-22T07:30:48;6.80;;;5.63;;
23302;SDS011;11820;48.738;9.092;2023-06-22T07:33:13;8.17;;;6.40;;
23302;SDS011;11820;48.738;9.092;2023-06-22T07:35:38;8.17;;;6.07;;
23302;SDS011;11820;48.738;9.092;2023-06-22T07:38:04;8.03;;;5.37;;
23302;SDS011;11820;48.738;9.092;2023-06-22T07:40:29;8.90;;;5.83;;
23302;SDS011;11820;48.738;9.092;2023-06-22T07:42:54;8.77;;;5.20;;
23302;SDS011;11820;48.738;9.092;2023-06-22T07:45:20;9.90;;;5.80;;
23302;SDS011;11820;48.738;9.092;2023-06-22T07:47:45;8.43;;;5.50;;
23302;SDS011;11820;48.738;9.092;2023-06-22T07:50:10;8.30;;;5.60;;
23302;SDS011;11820;48.738;9.092;2023-06-22T07:52:36;11.77;;;5.60;;
23302;SDS011;11820;48.738;9.092;2023-06-22T07:55:01;8.90;;;5.27;;
23302;SDS011;11820;48.738;9.092;2023-06-22T07:57:27;9.37;;;4.90;;
23302;SDS011;11820;48.738;9.092;2023-06-22T07:59:58;7.10;;;5.53;;
23302;SDS011;11820;48.738;9.092;2023-06-22T08:02:24;13.93;;;5.63;;
23302;SDS011;11820;48.738;9.092;2023-06-22T08:04:50;6.03;;;4.60;;
23302;SDS011;11820;48.738;9.092;2023-06-22T08:07:15;8.37;;;4.20;;
23302;SDS011;11820;48.738;9.092;2023-06-22T08:09:45;9.00;;;4.63;;
23302;SDS011;11820;48.738;9.092;2023-06-22T08:12:12;7.80;;;5.43;;
23302;SDS011;11820;48.738;9.092;2023-06-22T08:14:38;10.73;;;5.03;;
23302;SDS011;11820;48.738;9.092;2023-06-22T08:17:03;13.10;;;5.50;;
23302;SDS011;11820;48.738;9.092;2023-06-22T08:19:29;9.23;;;5.20;;
23302;SDS011;11820;48.738;9.092;2023-06-22T08:21:54;10.87;;;4.83;;
23302;SDS011;11820;48.738;9.092;2023-06-22T08:24:19;5.43;;;4.93;;
23302;SDS011;11820;48.738;9.092;2023-06-22T08:26:45;10.73;;;5.70;;
23302;SDS011;11820;48.738;9.092;2023-06-22T08:29:10;10.70;;;5.20;;
23302;SDS011;11820;48.738;9.092;2023-06-22T08:31:35;11.40;;;5.20;;
23302;SDS011;11820;48.738;9.092;2023-06-22T08:34:01;9.57;;;5.40;;
23302;SDS011;11820;48.738;9.092;2023-06-22T08:36:26;7.83;;;5.00;;
23302;SDS011;11820;48.738;9.092;2023-06-22T08:38:55;6.70;;;4.93;;
23302;SDS011;11820;48.738;9.092;2023-06-22T08:41:26;9.97;;;5.30;;
23302;SDS011;11820;48.738;9.092;2023-06-22T08:43:52;7.83;;;5.00;;
23302;SDS011;11820;48.738;9.092;2023-06-22T08:46:18;8.80;;;4.60;;
23302;SDS011;11820;48.738;9.092;2023-06-22T08:48:48;7.10;;;5.30;;
23302;SDS011;11820;48.738;9.092;2023-06-22T08:51:13;10.83;;;5.37;;
23302;SDS011;11820;48.738;9.092;2023-06-22T08:53:39;8.30;;;5.70;;
23302;SDS011;11820;48.738;9.092;2023-06-22T08:56:04;9.73;;;4.90;;
23302;SDS011;11820;48.738;9.092;2023-06-22T08:58:29;5.63;;;4.67;;
23302;SDS011;11820;48.738;9.092;2023-06-22T09:00:55;10.63;;;5.40;;
23302;SDS011;11820;48.738;9.092;2023-06-22T09:03:20;8.97;;;5.30;;
23302;SDS011;11820;48.738;9.092;2023-06-22T09:05:45;8.50;;;5.50;;
23302;SDS011;11820;48.738;9.092;2023-06-22T09:08:11;8.67;;;5.50;;
23302;SDS011;11820;48.738;9.092;2023-06-22T09:10:36;9.30;;;5.57;;
23302;SDS011;11820;48.738;9.092;2023-06-22T09:13:02;11.20;;;5.60;;
23302;SDS011;11820;48.738;9.092;2023-06-22T09:15:27;10.00;;;5.50;;
23302;SDS011;11820;48.738;9.092;2023-06-22T09:17:52;9.57;;;5.30;;
23302;SDS011;11820;48.738;9.092;2023-06-22T09:20:19;8.33;;;5.43;;
23302;SDS011;11820;48.738;9.092;2023-06-22T09:22:44;8.70;;;5.07;;
23302;SDS011;11820;48.738;9.092;2023-06-22T09:25:10;9.27;;;5.57;;
23302;SDS011;11820;48.738;9.092;2023-06-22T09:27:35;11.37;;;6.37;;
23302;SDS011;11820;48.738;9.092;2023-06-22T09:30:01;7.07;;;5.40;;
23302;SDS011;11820;48.738;9.092;2023-06-22T09:32:28;8.60;;;5.23;;
23302;SDS011;11820;48.738;9.092;2023-06-22T09:34:53;7.03;;;5.67;;
23302;SDS011;11820;48.738;9.092;2023-06-22T09:37:19;10.57;;;6.40;;
23302;SDS011;11820;48.738;9.092;2023-06-22T09:39:44;8.77;;;5.97;;
23302;SDS011;11820;48.738;9.092;2023-06-22T09:42:09;11.20;;;5.67;;
23302;SDS011;11820;48.738;9.092;2023-06-22T09:44:35;9.93;;;5.17;;
23302;SDS011;11820;48.738;9.092;2023-06-22T09:47:00;7.50;;;5.17;;
23302;SDS011;11820;48.738;9.092;2023-06-22T09:49:27;9.90;;;5.70;;
23302;SDS011;11820;48.738;9.092;2023-06-22T09:51:52;10.80;;;6.47;;
23302;SDS011;11820;48.738;9.092;2023-06-22T09:54:17;9.80;;;5.60;;
23302;SDS011;11820;48.738;9.092;2023-06-22T09:56:43;8.10;;;5.67;;
23302;SDS011;11820;48.738;9.092;2023-06-22T09:59:08;10.63;;;6.00;;
23302;SDS011;11820;48.738;9.092;2023-06-22T10:01:34;10.67;;;6.23;;
23302;SDS011;11820;48.738;9.092;2023-06-22T10:03:59;8.87;;;5.97;;
23302;SDS011;11820;48.738;9.092;2023-06-22T10:06:24;9.60;;;6.07;;
23302;SDS011;11820;48.738;9.092;2023-06-22T10:08:52;9.97;;;5.60;;
23302;SDS011;11820;48.738;9.092;2023-06-22T10:11:18;7.43;;;5.80;;
23302;SDS011;11820;48.738;9.092;2023-06-22T10:13:43;10.20;;;5.83;;
23302;SDS011;11820;48.738;9.092;2023-06-22T10:16:09;11.30;;;5.63;;
23302;SDS011;11820;48.738;9.092;2023-06-22T10:18:34;10.70;;;5.83;;
23302;SDS011;11820;48.738;9.092;2023-06-22T10:20:59;10.30;;;5.97;;
23302;SDS011;11820;48.738;9.092;2023-06-22T10:23:25;8.00;;;5.23;;
23302;SDS011;11820;48.738;9.092;2023-06-22T10:25:50;9.17;;;5.20;;
23302;SDS011;11820;48.738;9.092;2023-06-22T10:28:16;9.70;;;5.83;;
23302;SDS011;11820;48.738;9.092;2023-06-22T10:30:41;8.20;;;5.50;;
23302;SDS011;11820;48.738;9.092;2023-06-22T10:33:07;9.73;;;5.73;;
23302;SDS011;11820;48.738;9.092;2023-06-22T10:35:33;10.60;;;5.67;;
23302;SDS011;11820;48.738;9.092;2023-06-22T10:37:59;9.03;;;5.73;;
23302;SDS011;11820;48.738;9.092;2023-06-22T10:40:25;8.43;;;5.50;;
23302;SDS011;11820;48.738;9.092;2023-06-22T10:42:50;10.20;;;5.77;;
23302;SDS011;11820;48.738;9.092;2023-06-22T10:45:16;10.17;;;6.17;;
23302;SDS011;11820;48.738;9.092;2023-06-22T10:47:41;9.57;;;5.82;;
23302;SDS011;11820;48.738;9.092;2023-06-22T10:50:09;12.07;;;5.35;;
23302;SDS011;11820;48.738;9.092;2023-06-22T10:52:35;10.40;;;5.80;;
23302;SDS011;11820;48.738;9.092;2023-06-22T10:55:00;12.27;;;6.35;;
23302;SDS011;11820;48.738;9.092;2023-06-22T10:57:26;7.53;;;5.55;;
23302;SDS011;11820;48.738;9.092;2023-06-22T10:59:51;11.88;;;6.00;;
23302;SDS011;11820;48.738;9.092;2023-06-22T11:02:16;12.90;;;5.68;;
23302;SDS011;11820;48.738;9.092;2023-06-22T11:04:42;12.73;;;6.10;;
23302;SDS011;11820;48.738;9.092;2023-06-22T11:07:08;13.27;;;6.15;;
23302;SDS011;11820;48.738;9.092;2023-06-22T11:09:34;13.07;;;7.35;;
23302;SDS011;11820;48.738;9.092;2023-06-22T11:11:59;9.18;;;6.15;;
23302;SDS011;11820;48.738;9.092;2023-06-22T11:14:25;10.80;;;5.47;;
23302;SDS011;11820;48.738;9.092;2023-06-22T11:16:50;10.65;;;5.60;;
23302;SDS011;11820;48.738;9.092;2023-06-22T11:19:16;10.00;;;6.03;;
23302;SDS011;11820;48.738;9.092;2023-06-22T11:21:42;11.30;;;6.32;;
23302;SDS011;11820;48.738;9.092;2023-06-22T11:24:07;10.63;;;5.50;;
23302;SDS011;11820;48.738;9.092;2023-06-22T11:26:33;9.05;;;6.00;;
23302;SDS011;11820;48.738;9.092;2023-06-22T11:28:59;9.57;;;5.40;;
23302;SDS011;11820;48.738;9.092;2023-06-22T11:31:24;10.55;;;6.03;;
23302;SDS011;11820;48.738;9.092;2023-06-22T11:33:50;7.60;;;5.65;;
23302;SDS011;11820;48.738;9.092;2023-06-22T11:36:15;11.48;;;5.68;;
23302;SDS011;11820;48.738;9.092;2023-06-22T11:38:41;15.95;;;6.03;;
23302;SDS011;11820;48.738;9.092;2023-06-22T11:41:07;10.48;;;5.93;;
23302;SDS011;11820;48.738;9.092;2023-06-22T11:43:33;12.75;;;5.93;;
23302;SDS011;11820;48.738;9.092;2023-06-22T11:45:58;10.57;;;6.03;;
23302;SDS011;11820;48.738;9.092;2023-06-22T11:48:24;9.23;;;5.63;;
23302;SDS011;11820;48.738;9.092;2023-06-22T11:50:50;13.43;;;5.65;;
23302;SDS011;11820;48.738;9.092;2023-06-22T11:53:16;11.18;;;5.72;;
23302;SDS011;11820;48.738;9.092;2023-06-22T11:55:42;11.48;;;5.90;;
23302;SDS011;11820;48.738;9.092;2023-06-22T11:58:08;10.48;;;5.57;;
23302;SDS011;11820;48.738;9.092;2023-06-22T12:00:33;9.55;;;5.78;;
23302;SDS011;11820;48.738;9.092;2023-06-22T12:02:59;14.48;;;6.30;;
23302;SDS011;11820;48.738;9.092;2023-06-22T12:05:24;10.43;;;5.97;;
23302;SDS011;11820;48.738;9.092;2023-06-22T12:07:50;9.52;;;5.90;;
23302;SDS011;11820;48.738;9.092;2023-06-22T12:10:17;14.43;;;6.18;;
23302;SDS011;11820;48.738;9.092;2023-06-22T12:12:43;11.35;;;6.22;;
23302;SDS011;11820;48.738;9.092;2023-06-22T12:15:09;8.27;;;5.77;;
23302;SDS011;11820;48.738;9.092;2023-06-22T12:17:35;10.95;;;5.30;;
23302;SDS011;11820;48.738;9.092;2023-06-22T12:20:00;10.32;;;6.15;;
23302;SDS011;11820;48.738;9.092;2023-06-22T12:22:26;11.07;;;5.38;;
23302;SDS011;11820;48.738;9.092;2023-06-22T12:24:52;10.38;;;5.82;;
23302;SDS011;11820;48.738;9.092;2023-06-22T12:27:17;10.23;;;5.70;;
23302;SDS011;11820;48.738;9.092;2023-06-22T12:29:43;11.60;;;6.33;;
23302;SDS011;11820;48.738;9.092;2023-06-22T12:32:10;9.27;;;5.90;;
23302;SDS011;11820;48.738;9.092;2023-06-22T12:34:38;10.13;;;6.13;;
23302;SDS011;11820;48.738;9.092;2023-06-22T12:37:03;10.10;;;6.50;;
23302;SDS011;11820;48.738;9.092;2023-06-22T12:39:30;11.07;;;5.93;;
23302;SDS011;11820;48.738;9.092;2023-06-22T12:41:56;14.52;;;6.05;;
23302;SDS011;11820;48.738;9.092;2023-06-22T12:44:21;11.43;;;6.47;;
23302;SDS011;11820;48.738;9.092;2023-06-22T12:46:46;10.40;;;6.50;;
23302;SDS011;11820;48.738;9.092;2023-06-22T12:49:11;12.37;;;6.13;;
23302;SDS011;11820;48.738;9.092;2023-06-22T12:51:39;7.80;;;5.67;;
23302;SDS011;11820;48.738;9.092;2023-06-22T12:54:06;7.60;;;6.20;;
23302;SDS011;11820;48.738;9.092;2023-06-22T12:56:31;9.63;;;6.40;;
23302;SDS011;11820;48.738;9.092;2023-06-22T12:58:57;9.60;;;6.07;;
23302;SDS011;11820;48.738;9.092;2023-06-22T13:01:22;9.37;;;6.80;;
23302;SDS011;11820;48.738;9.092;2023-06-22T13:03:47;11.73;;;6.90;;
23302;SDS011;11820;48.738;9.092;2023-06-22T13:06:13;13.20;;;7.33;;
23302;SDS011;11820;48.738;9.092;2023-06-22T13:08:38;11.13;;;6.73;;
23302;SDS011;11820;48.738;9.092;2023-06-22T13:11:03;11.27;;;6.17;;
23302;SDS011;11820;48.738;9.092;2023-06-22T13:13:29;14.13;;;6.53;;
23302;SDS011;11820;48.738;9.092;2023-06-22T13:15:54;13.43;;;6.67;;
23302;SDS011;11820;48.738;9.092;2023-06-22T13:18:19;12.97;;;6.93;;
23302;SDS011;11820;48.738;9.092;2023-06-22T13:20:45;11.13;;;6.97;;
23302;SDS011;11820;48.738;9.092;2023-06-22T13:23:10;12.07;;;6.33;;
23302;SDS011;11820;48.738;9.092;2023-06-22T13:25:36;9.73;;;5.80;;
23302;SDS011;11820;48.738;9.092;2023-06-22T13:28:01;14.37;;;6.43;;
23302;SDS011;11820;48.738;9.092;2023-06-22T13:30:27;11.27;;;6.27;;
23302;SDS011;11820;48.738;9.092;2023-06-22T13:32:52;8.87;;;5.60;;
23302;SDS011;11820;48.738;9.092;2023-06-22T13:35:17;13.00;;;5.90;;
23302;SDS011;11820;48.738;9.092;2023-06-22T13:37:43;8.57;;;5.63;;
23302;SDS011;11820;48.738;9.092;2023-06-22T13:40:08;12.37;;;7.00;;
23302;SDS011;11820;48.738;9.092;2023-06-22T13:42:34;7.50;;;5.93;;
23302;SDS011;11820;48.738;9.092;2023-06-22T13:44:59;11.68;;;4.85;;
23302;SDS011;11820;48.738;9.092;2023-06-22T13:47:25;11.80;;;6.00;;
23302;SDS011;11820;48.738;9.092;2023-06-22T13:49:50;13.90;;;6.88;;
23302;SDS011;11820;48.738;9.092;2023-06-22T13:52:15;11.07;;;6.20;;
23302;SDS011;11820;48.738;9.092;2023-06-22T13:54:41;12.52;;;6.40;;
23302;SDS011;11820;48.738;9.092;2023-06-22T13:57:06;11.80;;;6.22;;
23302;SDS011;11820;48.738;9.092;2023-06-22T13:59:32;11.40;;;5.67;;
23302;SDS011;11820;48.738;9.092;2023-06-22T14:01:57;10.38;;;6.15;;
23302;SDS011;11820;48.738;9.092;2023-06-22T14:04:23;9.52;;;6.68;;
23302;SDS011;11820;48.738;9.092;2023-06-22T14:06:48;8.55;;;5.32;;
23302;SDS011;11820;48.738;9.092;2023-06-22T14:09:14;10.15;;;5.65;;
23302;SDS011;11820;48.738;9.092;2023-06-22T14:11:39;6.88;;;5.05;;
23302;SDS011;11820;48.738;9.092;2023-06-22T14:14:04;13.55;;;5.82;;
23302;SDS011;11820;48.738;9.092;2023-06-22T14:16:30;10.40;;;5.20;;
23302;SDS011;11820;48.738;9.092;2023-06-22T14:18:55;10.85;;;5.25;;
23302;SDS011;11820;48.738;9.092;2023-06-22T14:21:20;12.57;;;5.22;;
23302;SDS011;11820;48.738;9.092;2023-06-22T14:23:46;8.45;;;4.97;;
23302;SDS011;11820;48.738;9.092;2023-06-22T14:26:14;12.45;;;5.57;;
23302;SDS011;11820;48.738;9.092;2023-06-22T14:28:43;10.07;;;5.70;;
23302;SDS011;11820;48.738;9.092;2023-06-22T14:31:12;13.73;;;4.97;;
23302;SDS011;11820;48.738;9.092;2023-06-22T14:33:39;12.27;;;4.80;;
23302;SDS011;11820;48.738;9.092;2023-06-22T14:36:04;9.27;;;4.43;;
23302;SDS011;11820;48.738;9.092;2023-06-22T14:38:29;8.68;;;4.63;;
23302;SDS011;11820;48.738;9.092;2023-06-22T14:40:55;12.88;;;4.45;;
23302;SDS011;11820;48.738;9.092;2023-06-22T14:43:20;20.95;;;3.97;;
23302;SDS011;11820;48.738;9.092;2023-06-22T14:45:45;9.98;;;3.53;;